Time;durP1;ratioP1;P1;durP2;ratioP2;P2;SDS_P1;SDS_P2;PMS_P1;PMS_P2;Temp;Humidity;BMP_temperature;BMP_pressure;BME280_temperature;BME280_humidity;BME280_pressure;Samples;Min_cycle;Max_cycle;Signal;HPM_P1;HPM_P2
2023/07/03 00:01:14;;;;;;;10.07;3.63;;;16.90;99.90;;;;;;5045900;28;20132;-82
2023/07/03 00:03:40;;;;;;;9.75;4.25;;;16.90;99.90;;;;;;5032444;28;20123;-81
2023/07/03 00:06:06;;;;;;;9.98;4.50;;;17.00;99.90;;;;;;5028412;28;20140;-78
2023/07/03 00:08:31;;;;;;;14.45;4.47;;;17.00;99.90;;;;;;5032534;28;20032;-78
2023/07/03 00:11:02;;;;;;;12.38;3.92;;;17.00;99.90;;;;;;5042451;28;20083;-77
2023/07/03 00:13:31;;;;;;;13.57;4.95;;;16.90;99.90;;;;;;5028570;28;20115;-82
2023/07/03 00:16:02;;;;;;;12.48;3.80;;;17.00;99.90;;;;;;5029093;28;20043;-78
2023/07/03 00:18:28;;;;;;;10.88;3.55;;;16.90;99.90;;;;;;5048177;28;20432;-81
2023/07/03 00:20:54;;;;;;;11.13;4.35;;;16.90;99.90;;;;;;5032261;28;20064;-80
2023/07/03 00:23:21;;;;;;;11.27;4.35;;;16.90;99.90;;;;;;5047296;28;20076;-78
2023/07/03 00:25:48;;;;;;;12.65;4.13;;;17.00;99.90;;;;;;5030437;28;20052;-78
2023/07/03 00:28:14;;;;;;;10.38;3.95;;;17.00;99.90;;;;;;5037806;28;20131;-81
2023/07/03 00:30:39;;;;;;;8.82;3.65;;;17.00;99.90;;;;;;5053901;28;20155;-76
2023/07/03 00:33:05;;;;;;;11.65;4.03;;;16.90;99.90;;;;;;5031420;28;20497;-77
2023/07/03 00:35:31;;;;;;;10.07;4.03;;;17.00;99.90;;;;;;5052298;28;20049;-77
2023/07/03 00:37:56;;;;;;;9.30;4.07;;;16.90;99.90;;;;;;5034194;28;20036;-82
2023/07/03 00:40:22;;;;;;;12.73;4.15;;;16.90;99.90;;;;;;5031358;28;20036;-75
2023/07/03 00:42:51;;;;;;;9.63;4.03;;;16.90;99.90;;;;;;5034992;28;20044;-79
2023/07/03 00:45:17;;;;;;;12.35;4.60;;;16.90;99.90;;;;;;5029718;28;20072;-77
2023/07/03 00:47:42;;;;;;;11.82;3.92;;;16.90;99.90;;;;;;5047840;28;20067;-80
2023/07/03 00:50:09;;;;;;;8.98;3.70;;;16.90;99.90;;;;;;5039903;28;20048;-82
2023/07/03 00:52:35;;;;;;;10.50;3.47;;;16.90;99.90;;;;;;5049547;28;20052;-78
2023/07/03 00:55:01;;;;;;;13.40;4.20;;;16.90;99.90;;;;;;5053553;28;20044;-82
2023/07/03 00:57:28;;;;;;;8.25;3.50;;;16.90;99.90;;;;;;5049044;28;20045;-75
2023/07/03 00:59:54;;;;;;;9.68;3.72;;;16.90;99.90;;;;;;5053921;28;20044;-80
2023/07/03 01:02:36;;;;;;;10.93;3.72;;;16.90;99.90;;;;;;5029686;28;20040;-79
2023/07/03 01:05:34;;;;;;;9.95;3.60;;;16.90;99.90;;;;;;5062361;28;20036;-77
2023/07/03 01:08:00;;;;;;;12.25;3.85;;;16.90;99.90;;;;;;5045232;28;20507;-77
2023/07/03 01:10:29;;;;;;;11.27;4.05;;;16.80;99.90;;;;;;5054111;28;20045;-81
2023/07/03 01:12:59;;;;;;;9.32;3.92;;;16.90;99.90;;;;;;5045933;28;20091;-76
2023/07/03 01:15:33;;;;;;;9.95;4.05;;;16.80;99.90;;;;;;5044100;28;20049;-81
2023/07/03 01:18:01;;;;;;;9.38;3.70;;;16.80;99.90;;;;;;5029459;28;20095;-82
2023/07/03 01:20:34;;;;;;;12.73;3.97;;;16.80;99.90;;;;;;5032115;28;20149;-80
2023/07/03 01:23:22;;;;;;;12.52;4.15;;;16.80;99.90;;;;;;5023720;28;20033;-79
2023/07/03 01:25:51;;;;;;;8.73;3.38;;;16.80;99.90;;;;;;5044944;28;20044;-77
2023/07/03 01:28:20;;;;;;;8.15;3.22;;;16.80;99.90;;;;;;5047718;28;20041;-79
2023/07/03 01:30:48;;;;;;;13.93;3.45;;;16.70;99.90;;;;;;5031431;28;20045;-78
2023/07/03 01:33:17;;;;;;;10.18;3.65;;;16.80;99.90;;;;;;5040758;28;20044;-77
2023/07/03 01:35:46;;;;;;;7.90;3.30;;;16.80;99.90;;;;;;5043043;28;20045;-79
2023/07/03 01:38:13;;;;;;;9.00;3.42;;;16.80;99.90;;;;;;5048994;28;20064;-81
2023/07/03 01:40:40;;;;;;;10.13;3.78;;;16.80;99.90;;;;;;5028193;28;21851;-79
2023/07/03 01:43:06;;;;;;;9.52;3.42;;;16.80;99.90;;;;;;5029703;28;20049;-83
2023/07/03 01:45:44;;;;;;;9.10;3.25;;;16.80;99.90;;;;;;5014079;28;20037;-83
2023/07/03 01:48:10;;;;;;;11.75;3.67;;;16.80;99.90;;;;;;5030533;28;20036;-77
2023/07/03 01:50:36;;;;;;;11.13;4.47;;;16.80;99.90;;;;;;5049911;28;20091;-80
2023/07/03 01:53:09;;;;;;;14.10;3.67;;;16.80;99.90;;;;;;5031755;28;20063;-81
2023/07/03 01:55:44;;;;;;;8.20;3.40;;;16.80;99.90;;;;;;5044568;28;20257;-82
2023/07/03 01:58:37;;;;;;;10.30;3.83;;;16.80;99.90;;;;;;5044731;28;20114;-78
2023/07/03 02:01:07;;;;;;;8.68;3.30;;;16.80;99.90;;;;;;5030260;28;20037;-82
2023/07/03 02:03:52;;;;;;;8.80;3.40;;;16.80;99.90;;;;;;5049152;28;20044;-77
2023/07/03 02:06:29;;;;;;;10.18;4.07;;;16.70;99.90;;;;;;5058326;28;21576;-78
2023/07/03 02:08:55;;;;;;;9.88;2.85;;;16.70;99.90;;;;;;5056631;28;20072;-83
2023/07/03 02:11:23;;;;;;;10.20;3.10;;;16.70;99.90;;;;;;5047483;28;20032;-79
2023/07/03 02:13:49;;;;;;;9.38;2.55;;;16.60;99.90;;;;;;5020196;28;20039;-80
2023/07/03 02:16:15;;;;;;;9.50;2.97;;;16.60;99.90;;;;;;5053165;28;20164;-77
2023/07/03 02:18:46;;;;;;;8.20;2.67;;;16.60;99.90;;;;;;5037653;28;20049;-78
2023/07/03 02:21:13;;;;;;;9.57;3.35;;;16.60;99.90;;;;;;5031027;28;20072;-83
2023/07/03 02:23:40;;;;;;;12.40;3.50;;;16.50;99.90;;;;;;5017360;28;20048;-78
2023/07/03 02:26:06;;;;;;;6.50;2.50;;;16.40;99.90;;;;;;5049342;28;20131;-76
2023/07/03 02:28:31;;;;;;;5.90;2.75;;;16.30;99.90;;;;;;5048473;28;20115;-80
2023/07/03 02:30:57;;;;;;;8.07;2.55;;;16.20;99.90;;;;;;5015798;28;20049;-79
2023/07/03 02:33:23;;;;;;;7.28;2.45;;;16.20;99.90;;;;;;5016407;28;20583;-82
2023/07/03 02:35:48;;;;;;;7.38;2.70;;;16.10;99.90;;;;;;5033455;28;20084;-80
2023/07/03 02:38:15;;;;;;;6.80;2.70;;;16.10;99.90;;;;;;5013884;28;20042;-85
2023/07/03 02:40:41;;;;;;;8.05;3.15;;;16.00;99.90;;;;;;5020371;28;20520;-82
2023/07/03 02:43:08;;;;;;;13.15;2.83;;;15.90;99.90;;;;;;5033221;28;20059;-83
2023/07/03 02:45:38;;;;;;;7.65;2.50;;;15.80;99.90;;;;;;5046455;28;20071;-83
2023/07/03 02:48:05;;;;;;;12.93;3.35;;;15.70;99.90;;;;;;5027181;28;20040;-79
2023/07/03 02:50:31;;;;;;;8.80;2.83;;;15.80;99.90;;;;;;5048630;28;20043;-85
2023/07/03 02:52:56;;;;;;;8.13;2.70;;;15.70;99.90;;;;;;5048221;28;20112;-78
2023/07/03 02:55:23;;;;;;;10.48;2.38;;;15.60;99.90;;;;;;5047223;28;20079;-80
2023/07/03 02:57:49;;;;;;;9.70;2.50;;;15.60;99.90;;;;;;5033099;28;20037;-80
2023/07/03 03:00:15;;;;;;;7.15;2.30;;;15.60;99.90;;;;;;5060673;28;20048;-79
2023/07/03 03:02:43;;;;;;;7.57;2.40;;;15.60;99.90;;;;;;5021625;28;20056;-77
2023/07/03 03:05:09;;;;;;;9.13;2.58;;;15.60;99.90;;;;;;5056532;28;20493;-81
2023/07/03 03:07:35;;;;;;;8.57;2.30;;;15.60;99.90;;;;;;5016356;28;20036;-82
2023/07/03 03:10:01;;;;;;;9.00;2.80;;;15.60;99.90;;;;;;5040880;28;20106;-82
2023/07/03 03:12:27;;;;;;;7.47;2.45;;;15.60;99.90;;;;;;5058164;28;20040;-78
2023/07/03 03:14:53;;;;;;;6.72;2.00;;;15.60;99.90;;;;;;5034515;28;22018;-81
2023/07/03 03:17:19;;;;;;;9.27;2.60;;;15.50;99.90;;;;;;5035083;28;20052;-77
2023/07/03 03:19:44;;;;;;;6.07;2.83;;;15.50;99.90;;;;;;5046004;28;20049;-77
2023/07/03 03:22:10;;;;;;;7.88;2.40;;;15.50;99.90;;;;;;5032078;28;20045;-76
2023/07/03 03:24:36;;;;;;;6.85;2.35;;;15.50;99.90;;;;;;5032467;28;20043;-77
2023/07/03 03:27:06;;;;;;;8.30;1.92;;;15.50;99.90;;;;;;5021239;28;20076;-76
2023/07/03 03:29:38;;;;;;;10.13;3.05;;;15.50;99.90;;;;;;5046979;28;20098;-76
2023/07/03 03:32:05;;;;;;;9.93;3.60;;;15.50;99.90;;;;;;5036011;28;20067;-83
2023/07/03 03:34:32;;;;;;;11.95;2.75;;;15.50;99.90;;;;;;5031754;28;20437;-80
2023/07/03 03:36:58;;;;;;;8.15;3.00;;;15.50;99.90;;;;;;5061651;28;20099;-79
2023/07/03 03:39:24;;;;;;;6.90;1.98;;;15.40;99.90;;;;;;5052986;28;20048;-77
2023/07/03 03:41:49;;;;;;;7.28;2.35;;;15.40;99.90;;;;;;5052836;28;20079;-84
2023/07/03 03:44:15;;;;;;;8.00;2.17;;;15.40;99.90;;;;;;5024743;28;20611;-80
2023/07/03 03:46:41;;;;;;;6.40;2.33;;;15.50;99.90;;;;;;5047126;28;20041;-79
2023/07/03 03:49:09;;;;;;;7.47;2.28;;;15.40;99.90;;;;;;5014564;28;20045;-83
2023/07/03 03:51:34;;;;;;;7.20;2.58;;;15.50;99.90;;;;;;5056215;28;20137;-81
2023/07/03 03:54:00;;;;;;;5.85;2.50;;;15.50;99.90;;;;;;5031063;28;20076;-81
2023/07/03 03:56:26;;;;;;;9.88;2.65;;;15.50;99.90;;;;;;5050412;28;20074;-77
2023/07/03 03:58:51;;;;;;;5.05;1.80;;;15.50;99.90;;;;;;5029843;28;20116;-80
2023/07/03 04:01:17;;;;;;;6.25;2.70;;;15.50;99.90;;;;;;5032052;28;20610;-80
2023/07/03 04:03:43;;;;;;;7.35;1.98;;;15.50;99.90;;;;;;5029604;28;20088;-78
2023/07/03 04:06:09;;;;;;;10.27;1.83;;;15.50;99.90;;;;;;5016380;28;20046;-81
2023/07/03 04:08:35;;;;;;;10.90;2.50;;;15.50;99.90;;;;;;5036881;28;20055;-83
2023/07/03 04:11:01;;;;;;;7.50;2.00;;;15.50;99.90;;;;;;5017231;28;20068;-80
2023/07/03 04:13:28;;;;;;;8.70;2.40;;;15.40;99.90;;;;;;5016694;28;20071;-80
2023/07/03 04:15:53;;;;;;;3.97;1.83;;;15.40;99.90;;;;;;4999933;28;20048;-80
2023/07/03 04:18:23;;;;;;;10.90;2.00;;;15.40;99.90;;;;;;5030696;28;20029;-77
2023/07/03 04:20:49;;;;;;;8.13;2.33;;;15.40;99.90;;;;;;5051706;28;20071;-77
2023/07/03 04:23:16;;;;;;;5.70;1.98;;;15.40;99.90;;;;;;5028546;28;20047;-82
2023/07/03 04:25:42;;;;;;;10.00;2.20;;;15.40;99.90;;;;;;5030127;28;20051;-84
2023/07/03 04:28:09;;;;;;;7.75;1.80;;;15.40;99.90;;;;;;5031288;28;20044;-80
2023/07/03 04:30:35;;;;;;;11.15;2.72;;;15.40;99.90;;;;;;5031020;28;20040;-82
2023/07/03 04:33:00;;;;;;;9.15;2.25;;;15.40;99.90;;;;;;5003503;28;20025;-82
2023/07/03 04:35:26;;;;;;;7.85;2.15;;;15.40;99.90;;;;;;5016379;28;20037;-78
2023/07/03 04:37:52;;;;;;;8.40;2.15;;;15.50;99.90;;;;;;5036482;28;20094;-76
2023/07/03 04:40:18;;;;;;;12.13;2.97;;;15.60;99.90;;;;;;5030881;28;20041;-79
2023/07/03 04:42:44;;;;;;;8.55;2.40;;;15.50;99.90;;;;;;5053835;28;20044;-83
2023/07/03 04:45:10;;;;;;;9.98;2.58;;;15.60;99.90;;;;;;5049566;28;20048;-85
2023/07/03 04:47:39;;;;;;;5.72;2.08;;;15.60;99.90;;;;;;5046930;28;20040;-79
2023/07/03 04:50:09;;;;;;;5.57;1.92;;;15.70;99.90;;;;;;5033035;28;20037;-80
2023/07/03 04:52:38;;;;;;;6.57;1.92;;;15.80;99.90;;;;;;5039512;28;20382;-83
2023/07/03 04:55:14;;;;;;;5.40;2.17;;;15.80;99.90;;;;;;5037027;28;20045;-79
2023/07/03 04:57:42;;;;;;;7.65;2.35;;;15.80;99.90;;;;;;5032120;28;20045;-80
2023/07/03 05:00:20;;;;;;;6.38;2.05;;;15.80;99.90;;;;;;5044894;28;20044;-83
2023/07/03 05:02:48;;;;;;;9.63;2.45;;;15.90;99.90;;;;;;5029848;28;20036;-81
2023/07/03 05:05:15;;;;;;;7.70;2.05;;;16.00;99.90;;;;;;5031189;28;20110;-78
2023/07/03 05:07:42;;;;;;;9.88;2.78;;;16.00;99.90;;;;;;5048572;28;20040;-80
2023/07/03 05:10:16;;;;;;;11.60;2.47;;;16.00;99.90;;;;;;5011817;28;20037;-77
2023/07/03 05:12:45;;;;;;;8.52;2.20;;;16.00;99.90;;;;;;5024226;28;20508;-81
2023/07/03 05:15:13;;;;;;;8.90;2.33;;;16.00;99.90;;;;;;5029262;28;20083;-79
2023/07/03 05:17:39;;;;;;;9.40;2.38;;;16.10;99.90;;;;;;5029705;28;20040;-79
2023/07/03 05:20:11;;;;;;;4.78;2.00;;;16.20;99.90;;;;;;5029155;28;20048;-82
2023/07/03 05:22:39;;;;;;;6.20;2.05;;;16.30;99.90;;;;;;5026809;28;20044;-82
2023/07/03 05:25:06;;;;;;;8.30;1.70;;;16.30;99.90;;;;;;4996599;28;20572;-82
2023/07/03 05:27:33;;;;;;;8.85;2.38;;;16.30;99.90;;;;;;5047166;28;20522;-80
2023/07/03 05:29:59;;;;;;;8.07;1.95;;;16.40;99.90;;;;;;5014869;28;20488;-83
2023/07/03 05:32:25;;;;;;;6.50;1.90;;;16.60;99.90;;;;;;5014675;28;20039;-80
2023/07/03 05:34:50;;;;;;;6.15;1.88;;;16.60;99.90;;;;;;5030631;28;20044;-82
2023/07/03 05:37:17;;;;;;;6.68;2.03;;;16.90;99.90;;;;;;5019275;28;20045;-78
2023/07/03 05:39:46;;;;;;;9.52;2.05;;;17.00;99.90;;;;;;5043019;28;20045;-76
2023/07/03 05:42:12;;;;;;;11.75;2.00;;;17.20;99.90;;;;;;5044550;28;20041;-76
2023/07/03 05:44:37;;;;;;;7.07;1.98;;;17.30;99.90;;;;;;5012692;28;20044;-79
2023/07/03 05:47:03;;;;;;;10.30;2.42;;;17.40;99.90;;;;;;5017427;28;20033;-77
2023/07/03 05:49:29;;;;;;;8.38;2.33;;;17.30;99.90;;;;;;5048981;28;20140;-75
2023/07/03 05:51:55;;;;;;;8.82;2.45;;;17.30;99.90;;;;;;5041140;28;20148;-78
2023/07/03 05:54:21;;;;;;;10.85;2.50;;;17.30;99.90;;;;;;5031816;28;20028;-76
2023/07/03 05:57:04;;;;;;;13.02;2.40;;;17.30;99.90;;;;;;5014624;28;20067;-72
2023/07/03 05:59:31;;;;;;;10.05;2.47;;;17.20;99.90;;;;;;5044254;28;20071;-75
2023/07/03 06:01:57;;;;;;;9.18;2.25;;;17.20;99.90;;;;;;5039384;28;20147;-74
2023/07/03 06:04:24;;;;;;;7.10;2.10;;;17.00;99.90;;;;;;5044125;28;20041;-75
2023/07/03 06:06:53;;;;;;;9.45;2.50;;;16.90;99.90;;;;;;5032217;28;20068;-76
2023/07/03 06:09:18;;;;;;;10.40;2.30;;;16.90;99.90;;;;;;5039321;28;20047;-73
2023/07/03 06:11:45;;;;;;;10.32;2.40;;;16.90;99.90;;;;;;5028868;28;20484;-74
2023/07/03 06:14:17;;;;;;;6.28;2.20;;;16.90;99.90;;;;;;5043087;28;20045;-73
2023/07/03 06:16:46;;;;;;;12.15;1.98;;;16.90;99.90;;;;;;5044547;28;20397;-75
2023/07/03 06:19:13;;;;;;;9.95;2.17;;;16.90;99.90;;;;;;5037018;28;20732;-75
2023/07/03 06:21:39;;;;;;;5.65;1.92;;;16.90;99.90;;;;;;5045019;28;20036;-73
2023/07/03 06:24:10;;;;;;;14.18;2.20;;;17.10;99.90;;;;;;5069588;28;20059;-78
2023/07/03 06:26:38;;;;;;;6.30;1.85;;;17.20;99.90;;;;;;5051797;28;20036;-77
2023/07/03 06:29:05;;;;;;;6.38;2.05;;;17.30;99.90;;;;;;5042945;28;20492;-78
2023/07/03 06:31:31;;;;;;;6.20;2.50;;;17.40;99.90;;;;;;5026229;28;20040;-78
2023/07/03 06:33:57;;;;;;;9.45;2.92;;;17.70;99.90;;;;;;5042997;28;20049;-80
2023/07/03 06:36:23;;;;;;;9.18;2.17;;;17.80;99.90;;;;;;5013554;28;20056;-75
2023/07/03 06:38:53;;;;;;;8.23;2.22;;;18.00;99.90;;;;;;5045168;28;20562;-77
2023/07/03 06:41:26;;;;;;;5.80;2.17;;;18.30;99.90;;;;;;5042282;28;20052;-76
2023/07/03 06:43:52;;;;;;;9.00;2.20;;;18.40;99.90;;;;;;5044192;28;20061;-75
2023/07/03 06:46:18;;;;;;;8.50;1.95;;;18.40;99.90;;;;;;5045370;28;20056;-76
2023/07/03 06:48:44;;;;;;;8.75;2.30;;;18.40;99.90;;;;;;5029133;28;20037;-76
2023/07/03 06:51:12;;;;;;;5.75;2.08;;;18.40;99.90;;;;;;5060177;28;20037;-77
2023/07/03 06:53:38;;;;;;;9.82;2.85;;;18.20;99.90;;;;;;5045554;28;20036;-77
2023/07/03 06:56:05;;;;;;;7.90;1.92;;;18.10;99.90;;;;;;5025221;28;20517;-81
2023/07/03 06:58:32;;;;;;;8.23;1.92;;;17.80;99.90;;;;;;5012934;28;20493;-80
2023/07/03 07:01:04;;;;;;;4.40;1.73;;;17.60;99.90;;;;;;5026583;28;20064;-82
2023/07/03 07:03:30;;;;;;;5.53;1.70;;;17.40;99.90;;;;;;5026773;28;20462;-82
2023/07/03 07:05:56;;;;;;;7.78;2.10;;;17.20;99.90;;;;;;5039455;28;20038;-81
2023/07/03 07:08:22;;;;;;;9.40;2.45;;;16.90;99.90;;;;;;5025845;28;21793;-80
2023/07/03 07:10:47;;;;;;;7.70;2.58;;;16.90;99.90;;;;;;5047779;28;20481;-74
2023/07/03 07:13:13;;;;;;;11.68;2.58;;;16.70;99.90;;;;;;5029662;28;20052;-80
2023/07/03 07:15:40;;;;;;;7.50;2.20;;;16.70;99.90;;;;;;5036008;28;20044;-80
2023/07/03 07:18:08;;;;;;;6.35;2.45;;;16.60;99.90;;;;;;5030208;28;20076;-80
2023/07/03 07:20:39;;;;;;;7.78;1.92;;;16.60;99.90;;;;;;5047351;28;20053;-79
2023/07/03 07:23:07;;;;;;;11.35;2.20;;;16.50;99.90;;;;;;5030083;28;20075;-80
2023/07/03 07:25:33;;;;;;;5.10;1.50;;;16.30;99.90;;;;;;5046029;28;20106;-76
2023/07/03 07:27:58;;;;;;;4.07;1.60;;;16.20;99.90;;;;;;5024989;28;20029;-82
2023/07/03 07:30:24;;;;;;;5.60;1.90;;;16.10;99.90;;;;;;5013080;28;20095;-83
2023/07/03 07:32:50;;;;;;;5.00;2.05;;;16.30;99.90;;;;;;5028952;28;20133;-82
2023/07/03 07:35:16;;;;;;;4.68;1.60;;;16.60;99.90;;;;;;5036317;28;20305;-82
2023/07/03 07:37:42;;;;;;;6.38;1.90;;;16.80;99.90;;;;;;5040198;28;20045;-81
2023/07/03 07:40:09;;;;;;;6.63;1.88;;;16.80;99.90;;;;;;5019307;28;20037;-83
2023/07/03 07:42:35;;;;;;;6.78;2.00;;;16.80;99.90;;;;;;5059010;28;20048;-80
2023/07/03 07:45:03;;;;;;;9.45;2.17;;;16.70;99.90;;;;;;5039909;28;20052;-83
2023/07/03 07:47:29;;;;;;;6.82;2.10;;;16.60;99.90;;;;;;5048083;28;20527;-80
2023/07/03 07:49:55;;;;;;;8.02;1.98;;;16.70;99.90;;;;;;5049577;28;20032;-81
2023/07/03 07:52:23;;;;;;;5.32;1.95;;;16.80;99.90;;;;;;5030877;28;20527;-83
2023/07/03 07:54:57;;;;;;;6.10;2.78;;;17.00;99.90;;;;;;5032914;28;20043;-82
2023/07/03 07:57:23;;;;;;;6.47;2.10;;;17.10;99.90;;;;;;5027979;28;20098;-84
2023/07/03 07:59:50;;;;;;;6.97;1.92;;;17.20;99.90;;;;;;5025957;28;20041;-83
2023/07/03 08:02:15;;;;;;;6.28;2.50;;;17.20;99.90;;;;;;5029574;28;20099;-84
2023/07/03 08:04:42;;;;;;;6.78;2.20;;;17.50;99.90;;;;;;4998876;28;20041;-81
2023/07/03 08:07:08;;;;;;;9.95;1.92;;;17.50;99.90;;;;;;5047288;28;20104;-85
2023/07/03 08:09:33;;;;;;;6.22;2.10;;;17.60;99.90;;;;;;5046671;28;20473;-85
2023/07/03 08:12:02;;;;;;;5.68;1.88;;;17.90;99.90;;;;;;5031586;28;20090;-82
2023/07/03 08:14:29;;;;;;;5.72;2.30;;;18.10;99.90;;;;;;5020166;28;20044;-85
2023/07/03 08:16:54;;;;;;;7.88;1.73;;;18.20;99.90;;;;;;5031140;28;20520;-84
2023/07/03 08:19:20;;;;;;;7.10;2.03;;;18.20;99.90;;;;;;5023613;28;20046;-84
2023/07/03 08:21:46;;;;;;;7.53;1.98;;;18.40;99.90;;;;;;5046033;28;20529;-84
2023/07/03 08:24:12;;;;;;;8.57;1.55;;;18.60;99.90;;;;;;5001146;28;20094;-81
2023/07/03 08:26:37;;;;;;;5.57;1.90;;;18.50;99.90;;;;;;5016186;28;20470;-82
2023/07/03 08:29:03;;;;;;;6.07;2.28;;;18.50;99.90;;;;;;4999958;28;20037;-86
2023/07/03 08:31:29;;;;;;;5.80;1.92;;;19.00;99.90;;;;;;5029252;28;20091;-80
2023/07/03 08:33:55;;;;;;;7.45;1.88;;;19.30;99.90;;;;;;5023999;28;20049;-78
2023/07/03 08:36:22;;;;;;;6.57;1.67;;;19.20;99.90;;;;;;5009548;28;20068;-85
2023/07/03 08:38:48;;;;;;;6.88;1.90;;;19.30;99.90;;;;;;5022518;28;20052;-83
2023/07/03 08:41:15;;;;;;;6.88;1.75;;;19.10;99.90;;;;;;5011324;28;20037;-81
2023/07/03 08:43:47;;;;;;;8.45;1.55;;;19.10;99.90;;;;;;5012912;28;20052;-78
2023/07/03 08:46:23;;;;;;;4.55;1.40;;;19.00;99.90;;;;;;5048137;28;20094;-79
2023/07/03 08:48:51;;;;;;;4.88;1.38;;;19.10;99.90;;;;;;5049415;28;20477;-75
2023/07/03 08:51:19;;;;;;;10.13;1.70;;;19.00;99.90;;;;;;5062118;28;20417;-77
2023/07/03 08:53:49;;;;;;;7.15;1.58;;;18.90;99.90;;;;;;5047501;28;20032;-78
2023/07/03 08:56:20;;;;;;;3.90;1.30;;;19.00;99.90;;;;;;5043484;28;20052;-77
2023/07/03 08:58:46;;;;;;;4.95;1.13;;;18.90;99.90;;;;;;5030344;28;20048;-73
2023/07/03 09:01:36;;;;;;;6.38;1.42;;;18.80;99.90;;;;;;5045211;28;20127;-75
2023/07/03 09:04:05;;;;;;;5.63;1.80;;;18.80;99.90;;;;;;5059136;28;20041;-74
2023/07/03 09:06:55;;;;;;;5.90;1.67;;;19.40;99.90;;;;;;5058759;28;20094;-76
2023/07/03 09:10:13;;;;;;;5.97;1.20;;;19.30;99.90;;;;;;5044987;28;20062;-74
2023/07/03 09:13:23;;;;;;;2.75;1.20;;;19.30;99.90;;;;;;5015776;28;20131;-76
2023/07/03 09:16:13;;;;;;;3.95;1.30;;;19.10;99.90;;;;;;5045265;28;20477;-72
2023/07/03 09:18:49;;;;;;;3.25;1.00;;;18.90;99.90;;;;;;5029338;28;20076;-74
2023/07/03 09:21:15;;;;;;;5.18;1.40;;;18.80;99.90;;;;;;5043529;28;20052;-77
2023/07/03 09:24:07;;;;;;;4.65;1.85;;;18.50;99.90;;;;;;5026405;28;20044;-77
2023/07/03 09:26:44;;;;;;;8.43;1.50;;;18.00;99.90;;;;;;5041362;28;20057;-78
2023/07/03 09:29:11;;;;;;;5.00;1.48;;;17.50;99.90;;;;;;5045014;28;20102;-76
2023/07/03 09:31:37;;;;;;;5.47;1.50;;;17.20;99.90;;;;;;5026019;28;20040;-76
2023/07/03 09:34:03;;;;;;;3.92;1.55;;;17.40;99.90;;;;;;5056860;28;20433;-76
2023/07/03 09:36:34;;;;;;;4.32;1.67;;;18.40;99.90;;;;;;5042441;28;20122;-77
2023/07/03 09:39:12;;;;;;;2.78;1.63;;;18.50;99.90;;;;;;5037980;28;20612;-78
2023/07/03 09:41:39;;;;;;;7.00;1.80;;;18.60;99.90;;;;;;5028754;28;20040;-78
2023/07/03 09:44:13;;;;;;;5.95;1.35;;;18.60;99.90;;;;;;5041933;28;20488;-74
2023/07/03 09:46:39;;;;;;;5.70;1.70;;;18.50;99.90;;;;;;5028648;28;20036;-78
2023/07/03 09:49:14;;;;;;;5.72;1.33;;;18.40;99.90;;;;;;5041289;28;20051;-74
2023/07/03 09:51:40;;;;;;;5.60;1.65;;;18.50;99.90;;;;;;5043830;28;20025;-79
2023/07/03 09:54:18;;;;;;;5.82;1.58;;;18.50;99.90;;;;;;5026554;28;20083;-77
2023/07/03 09:56:43;;;;;;;6.15;1.55;;;18.40;99.90;;;;;;5030566;28;20063;-76
2023/07/03 09:59:09;;;;;;;5.07;1.40;;;18.50;99.90;;;;;;5044433;28;20052;-80
2023/07/03 10:01:38;;;;;;;4.00;1.40;;;18.40;99.90;;;;;;5028294;28;20060;-78
2023/07/03 10:04:13;;;;;;;4.45;1.42;;;18.50;99.90;;;;;;5045196;28;20029;-78
2023/07/03 10:06:41;;;;;;;4.53;1.55;;;18.40;99.90;;;;;;5045552;28;20051;-77
2023/07/03 10:09:25;;;;;;;5.00;1.10;;;18.30;99.90;;;;;;5030729;28;20060;-76
2023/07/03 10:12:04;;;;;;;2.95;1.10;;;18.30;99.90;;;;;;5027285;28;20051;-73
2023/07/03 10:15:01;;;;;;;5.32;1.85;;;18.30;99.90;;;;;;5060541;28;20070;-75
2023/07/03 10:17:43;;;;;;;1.58;1.05;;;17.80;99.90;;;;;;5013989;28;20059;-74
2023/07/03 10:20:19;;;;;;;4.38;1.40;;;17.70;99.90;;;;;;5043205;28;20044;-73
2023/07/03 10:22:46;;;;;;;3.92;1.30;;;17.60;99.90;;;;;;5028489;28;20099;-73
2023/07/03 10:25:26;;;;;;;3.65;1.48;;;17.60;99.90;;;;;;5025613;28;20049;-74
2023/07/03 10:27:57;;;;;;;3.13;1.45;;;17.60;99.90;;;;;;5042327;28;20123;-75
2023/07/03 10:30:25;;;;;;;3.33;1.10;;;17.30;99.90;;;;;;5031543;28;20098;-72
2023/07/03 10:32:53;;;;;;;2.22;1.08;;;17.30;99.90;;;;;;5049577;28;20041;-73
2023/07/03 10:35:27;;;;;;;3.30;1.10;;;17.30;99.90;;;;;;5041540;28;20048;-73
2023/07/03 10:38:13;;;;;;;4.05;1.20;;;17.10;99.90;;;;;;5034322;28;20048;-74
2023/07/03 10:40:55;;;;;;;5.35;1.23;;;17.10;99.90;;;;;;5031932;28;20040;-72
2023/07/03 10:43:23;;;;;;;4.80;1.42;;;17.30;99.90;;;;;;5043687;28;20072;-71
2023/07/03 10:45:50;;;;;;;4.50;1.50;;;17.60;99.90;;;;;;5046914;28;20037;-73
2023/07/03 10:48:24;;;;;;;4.10;1.33;;;18.20;99.90;;;;;;5034254;28;20358;-76
2023/07/03 10:51:03;;;;;;;3.45;1.40;;;18.60;99.90;;;;;;5049152;28;20036;-73
2023/07/03 10:53:39;;;;;;;4.90;1.70;;;18.60;99.90;;;;;;5047254;28;20041;-73
2023/07/03 10:56:19;;;;;;;5.43;1.55;;;18.50;99.90;;;;;;5032111;28;20037;-73
2023/07/03 10:59:06;;;;;;;4.20;1.27;;;18.30;99.90;;;;;;5047154;28;20366;-72
2023/07/03 11:01:40;;;;;;;4.15;1.20;;;18.10;99.90;;;;;;5047977;28;20091;-76
2023/07/03 11:04:19;;;;;;;5.13;1.50;;;17.90;99.90;;;;;;5024371;28;20144;-76
2023/07/03 11:06:57;;;;;;;2.22;1.20;;;17.70;99.90;;;;;;5029189;28;20110;-80
2023/07/03 11:09:40;;;;;;;3.75;1.48;;;17.70;99.90;;;;;;5054035;28;20044;-81
2023/07/03 11:12:26;;;;;;;4.72;1.33;;;18.00;99.90;;;;;;5039617;28;20114;-79
2023/07/03 11:15:05;;;;;;;4.35;1.15;;;18.40;99.90;;;;;;5061843;28;20044;-78
2023/07/03 11:18:00;;;;;;;4.03;1.33;;;18.40;99.90;;;;;;5031647;28;20051;-80
2023/07/03 11:20:36;;;;;;;5.18;1.70;;;18.40;99.90;;;;;;5029582;28;20032;-78
2023/07/03 11:23:31;;;;;;;6.72;1.40;;;18.90;99.90;;;;;;5041428;28;20029;-80
2023/07/03 11:26:06;;;;;;;6.88;1.75;;;19.00;99.90;;;;;;5029471;28;20044;-80
2023/07/03 11:28:37;;;;;;;;;;;19.40;99.90;;;;;;5029880;28;20127;-82
2023/07/03 11:31:04;;;;;;;2.47;1.33;;;19.60;99.90;;;;;;5029413;28;20254;-80
2023/07/03 11:33:35;;;;;;;3.65;1.50;;;19.60;99.90;;;;;;5031048;28;20044;-73
2023/07/03 11:36:02;;;;;;;5.30;1.58;;;19.40;99.90;;;;;;5012417;28;20119;-74
2023/07/03 11:38:28;;;;;;;5.47;1.77;;;19.50;99.90;;;;;;5045883;28;20040;-77
2023/07/03 11:40:54;;;;;;;4.00;1.20;;;19.40;99.90;;;;;;5031042;28;20095;-75
2023/07/03 11:43:29;;;;;;;5.18;1.67;;;19.30;99.90;;;;;;5045409;28;20040;-79
2023/07/03 11:45:58;;;;;;;3.88;1.20;;;19.40;99.90;;;;;;5047195;28;20052;-79
2023/07/03 11:48:35;;;;;;;4.47;1.50;;;19.50;99.90;;;;;;5039699;28;20041;-76
2023/07/03 11:51:08;;;;;;;4.45;1.27;;;19.40;99.90;;;;;;5027518;28;20142;-74
2023/07/03 11:53:54;;;;;;;5.28;1.52;;;19.20;99.90;;;;;;5045220;28;20397;-78
2023/07/03 11:56:41;;;;;;;4.13;1.25;;;19.10;99.90;;;;;;5070958;28;20037;-76
2023/07/03 11:59:17;;;;;;;4.40;1.30;;;18.80;99.90;;;;;;5024806;28;20124;-78
2023/07/03 12:01:43;;;;;;;3.13;1.30;;;18.70;99.90;;;;;;5060196;28;20111;-80
2023/07/03 12:04:09;;;;;;;4.85;1.95;;;18.70;99.90;;;;;;5012129;28;20044;-76
2023/07/03 12:06:41;;;;;;;4.10;1.20;;;18.90;99.90;;;;;;5029043;28;20119;-78
2023/07/03 12:09:19;;;;;;;4.15;1.40;;;19.00;99.90;;;;;;5045794;28;20497;-77
2023/07/03 12:12:03;;;;;;;7.85;1.58;;;19.00;99.90;;;;;;5049910;28;20094;-82
2023/07/03 12:15:14;;;;;;;4.80;1.45;;;19.10;99.90;;;;;;5031505;28;20041;-81
2023/07/03 12:17:35;;;;;;;5.78;1.40;;;19.20;99.90;;;;;;5044427;28;20091;-83
2023/07/03 12:20:13;;;;;;;5.20;1.42;;;19.10;99.90;;;;;;5063881;28;20037;-83
2023/07/03 12:22:45;;;;;;;3.85;1.23;;;19.20;99.90;;;;;;5029444;28;20048;-82
2023/07/03 12:25:12;;;;;;;3.65;1.33;;;19.50;99.90;;;;;;5032069;28;20037;-82
2023/07/03 12:27:39;;;;;;;5.68;1.83;;;19.70;99.90;;;;;;5036481;28;21559;-81
2023/07/03 12:30:37;;;;;;;6.30;1.50;;;19.60;99.90;;;;;;5031721;28;20045;-82
2023/07/03 12:33:03;;;;;;;4.30;1.33;;;19.80;99.90;;;;;;5031849;28;20072;-84
2023/07/03 12:35:35;;;;;;;5.25;1.15;;;19.70;99.90;;;;;;5011307;28;20053;-82
2023/07/03 12:38:08;;;;;;;3.67;1.05;;;19.40;99.90;;;;;;5042643;28;20044;-83
2023/07/03 12:40:41;;;;;;;2.93;1.20;;;19.20;99.90;;;;;;5027884;28;20102;-82
2023/07/03 12:43:09;;;;;;;4.82;1.70;;;19.10;99.90;;;;;;5024874;28;20132;-82
2023/07/03 12:45:34;;;;;;;5.65;1.63;;;19.10;99.90;;;;;;5029937;28;20100;-82
2023/07/03 12:48:08;;;;;;;5.75;1.48;;;19.00;99.90;;;;;;5031806;28;20041;-83
2023/07/03 12:50:45;;;;;;;5.17;1.20;;;19.00;99.90;;;;;;5030791;28;20082;-83
2023/07/03 12:53:11;;;;;;;3.13;1.23;;;19.10;99.90;;;;;;5046226;28;20041;-81
2023/07/03 12:55:41;;;;;;;3.95;1.40;;;19.10;99.90;;;;;;5014027;28;20051;-83
2023/07/03 12:58:07;;;;;;;7.82;1.30;;;19.10;99.90;;;;;;5028209;28;20108;-82
2023/07/03 13:00:35;;;;;;;3.97;1.10;;;19.20;99.90;;;;;;4999003;28;20040;-82